sensor_id;sensor_type;location;lat;lon;timestamp;P1;durP1;ratioP1;P2;durP2;ratioP2
26540;SDS011;14206;50.202;10.948;2022-12-18T00:00:00;12.93;;;5.53;;
26540;SDS011;14206;50.202;10.948;2022-12-18T00:02:27;9.35;;;4.72;;
26540;SDS011;14206;50.202;10.948;2022-12-18T00:04:53;8.70;;;4.47;;
26540;SDS011;14206;50.202;10.948;2022-12-18T00:07:29;9.32;;;4.95;;
26540;SDS011;14206;50.202;10.948;2022-12-18T00:09:55;8.25;;;4.38;;
26540;SDS011;14206;50.202;10.948;2022-12-18T00:12:23;9.38;;;4.70;;
26540;SDS011;14206;50.202;10.948;2022-12-18T00:15:10;11.07;;;5.00;;
26540;SDS011;14206;50.202;10.948;2022-12-18T00:17:37;11.95;;;5.50;;
26540;SDS011;14206;50.202;10.948;2022-12-18T00:20:04;10.32;;;5.60;;
26540;SDS011;14206;50.202;10.948;2022-12-18T00:22:31;8.32;;;4.38;;
26540;SDS011;14206;50.202;10.948;2022-12-18T00:24:59;9.68;;;4.65;;
26540;SDS011;14206;50.202;10.948;2022-12-18T00:27:26;9.40;;;4.90;;
26540;SDS011;14206;50.202;10.948;2022-12-18T00:29:52;9.30;;;4.63;;
26540;SDS011;14206;50.202;10.948;2022-12-18T00:32:19;10.02;;;5.00;;
26540;SDS011;14206;50.202;10.948;2022-12-18T00:34:47;7.75;;;4.57;;
26540;SDS011;14206;50.202;10.948;2022-12-18T00:37:21;8.85;;;4.65;;
26540;SDS011;14206;50.202;10.948;2022-12-18T00:39:54;8.88;;;4.85;;
26540;SDS011;14206;50.202;10.948;2022-12-18T00:42:21;11.68;;;5.07;;
26540;SDS011;14206;50.202;10.948;2022-12-18T00:45:06;7.50;;;4.30;;
26540;SDS011;14206;50.202;10.948;2022-12-18T00:47:38;9.38;;;4.60;;
26540;SDS011;14206;50.202;10.948;2022-12-18T00:50:05;7.82;;;4.60;;
26540;SDS011;14206;50.202;10.948;2022-12-18T00:52:33;8.77;;;4.30;;
26540;SDS011;14206;50.202;10.948;2022-12-18T00:55:00;8.20;;;3.92;;
26540;SDS011;14206;50.202;10.948;2022-12-18T00:57:31;7.90;;;4.18;;
26540;SDS011;14206;50.202;10.948;2022-12-18T00:59:58;6.57;;;3.90;;
26540;SDS011;14206;50.202;10.948;2022-12-18T01:02:25;8.18;;;3.88;;
26540;SDS011;14206;50.202;10.948;2022-12-18T01:04:53;8.23;;;4.10;;
26540;SDS011;14206;50.202;10.948;2022-12-18T01:07:19;7.38;;;4.15;;
26540;SDS011;14206;50.202;10.948;2022-12-18T01:09:46;8.35;;;4.28;;
26540;SDS011;14206;50.202;10.948;2022-12-18T01:12:13;9.23;;;4.40;;
26540;SDS011;14206;50.202;10.948;2022-12-18T01:14:40;9.05;;;4.05;;
26540;SDS011;14206;50.202;10.948;2022-12-18T01:17:07;8.40;;;4.20;;
26540;SDS011;14206;50.202;10.948;2022-12-18T01:19:34;8.70;;;4.45;;
26540;SDS011;14206;50.202;10.948;2022-12-18T01:22:02;9.82;;;4.75;;
26540;SDS011;14206;50.202;10.948;2022-12-18T01:24:29;9.38;;;4.50;;
26540;SDS011;14206;50.202;10.948;2022-12-18T01:26:56;8.07;;;4.68;;
26540;SDS011;14206;50.202;10.948;2022-12-18T01:29:24;8.68;;;4.45;;
26540;SDS011;14206;50.202;10.948;2022-12-18T01:31:54;10.25;;;4.68;;
26540;SDS011;14206;50.202;10.948;2022-12-18T01:34:25;7.97;;;4.30;;
26540;SDS011;14206;50.202;10.948;2022-12-18T01:36:52;7.85;;;4.35;;
26540;SDS011;14206;50.202;10.948;2022-12-18T01:39:18;9.60;;;4.70;;
26540;SDS011;14206;50.202;10.948;2022-12-18T01:41:45;9.10;;;4.88;;
26540;SDS011;14206;50.202;10.948;2022-12-18T01:47:18;12.85;;;5.43;;
26540;SDS011;14206;50.202;10.948;2022-12-18T01:49:56;12.00;;;5.47;;
26540;SDS011;14206;50.202;10.948;2022-12-18T01:52:28;12.93;;;5.82;;
26540;SDS011;14206;50.202;10.948;2022-12-18T01:55:10;13.05;;;7.05;;
26540;SDS011;14206;50.202;10.948;2022-12-18T01:57:38;14.38;;;7.38;;
26540;SDS011;14206;50.202;10.948;2022-12-18T02:00:14;16.58;;;7.72;;
26540;SDS011;14206;50.202;10.948;2022-12-18T02:02:47;13.70;;;7.38;;
26540;SDS011;14206;50.202;10.948;2022-12-18T02:05:40;15.38;;;7.75;;
26540;SDS011;14206;50.202;10.948;2022-12-18T02:08:30;13.35;;;6.57;;
26540;SDS011;14206;50.202;10.948;2022-12-18T02:17:16;18.40;;;8.85;;
26540;SDS011;14206;50.202;10.948;2022-12-18T02:25:58;14.30;;;6.75;;
26540;SDS011;14206;50.202;10.948;2022-12-18T02:28:53;14.05;;;6.97;;
26540;SDS011;14206;50.202;10.948;2022-12-18T02:31:35;11.30;;;6.05;;
26540;SDS011;14206;50.202;10.948;2022-12-18T02:34:13;11.43;;;5.97;;
26540;SDS011;14206;50.202;10.948;2022-12-18T02:36:50;10.70;;;5.47;;
26540;SDS011;14206;50.202;10.948;2022-12-18T02:39:22;11.10;;;4.75;;
26540;SDS011;14206;50.202;10.948;2022-12-18T02:41:57;8.93;;;4.70;;
26540;SDS011;14206;50.202;10.948;2022-12-18T02:44:27;8.27;;;4.68;;
26540;SDS011;14206;50.202;10.948;2022-12-18T02:46:54;9.73;;;4.85;;
26540;SDS011;14206;50.202;10.948;2022-12-18T02:49:26;7.80;;;4.55;;
26540;SDS011;14206;50.202;10.948;2022-12-18T03:00:30;12.13;;;6.43;;
26540;SDS011;14206;50.202;10.948;2022-12-18T03:03:29;12.98;;;6.18;;
26540;SDS011;14206;50.202;10.948;2022-12-18T03:06:14;10.27;;;5.00;;
26540;SDS011;14206;50.202;10.948;2022-12-18T03:08:58;10.20;;;5.30;;
26540;SDS011;14206;50.202;10.948;2022-12-18T03:11:30;12.40;;;5.95;;
26540;SDS011;14206;50.202;10.948;2022-12-18T03:14:20;11.02;;;5.72;;
26540;SDS011;14206;50.202;10.948;2022-12-18T03:16:50;13.32;;;7.05;;
26540;SDS011;14206;50.202;10.948;2022-12-18T03:19:21;16.80;;;7.05;;
26540;SDS011;14206;50.202;10.948;2022-12-18T03:22:02;17.83;;;8.05;;
26540;SDS011;14206;50.202;10.948;2022-12-18T03:24:40;13.27;;;7.15;;
26540;SDS011;14206;50.202;10.948;2022-12-18T03:27:11;12.63;;;6.10;;
26540;SDS011;14206;50.202;10.948;2022-12-18T03:29:48;14.30;;;7.30;;
26540;SDS011;14206;50.202;10.948;2022-12-18T03:32:29;12.20;;;6.50;;
26540;SDS011;14206;50.202;10.948;2022-12-18T03:34:59;11.20;;;5.97;;
26540;SDS011;14206;50.202;10.948;2022-12-18T03:37:34;10.85;;;5.40;;
26540;SDS011;14206;50.202;10.948;2022-12-18T03:40:02;12.13;;;6.30;;
26540;SDS011;14206;50.202;10.948;2022-12-18T03:42:46;14.00;;;7.32;;
26540;SDS011;14206;50.202;10.948;2022-12-18T03:48:46;13.43;;;6.90;;
26540;SDS011;14206;50.202;10.948;2022-12-18T03:51:43;11.05;;;5.80;;
26540;SDS011;14206;50.202;10.948;2022-12-18T03:54:08;10.10;;;5.25;;
26540;SDS011;14206;50.202;10.948;2022-12-18T03:56:45;9.95;;;5.28;;
26540;SDS011;14206;50.202;10.948;2022-12-18T03:59:19;9.88;;;5.00;;
26540;SDS011;14206;50.202;10.948;2022-12-18T04:01:52;8.60;;;4.43;;
26540;SDS011;14206;50.202;10.948;2022-12-18T04:04:22;7.93;;;4.28;;
26540;SDS011;14206;50.202;10.948;2022-12-18T04:06:51;8.60;;;4.75;;
26540;SDS011;14206;50.202;10.948;2022-12-18T04:09:19;9.85;;;4.97;;
26540;SDS011;14206;50.202;10.948;2022-12-18T04:11:49;9.05;;;4.38;;
26540;SDS011;14206;50.202;10.948;2022-12-18T04:14:18;11.90;;;5.43;;
26540;SDS011;14206;50.202;10.948;2022-12-18T04:16:50;11.82;;;6.45;;
26540;SDS011;14206;50.202;10.948;2022-12-18T04:19:22;14.98;;;7.82;;
26540;SDS011;14206;50.202;10.948;2022-12-18T04:21:50;13.55;;;7.22;;
26540;SDS011;14206;50.202;10.948;2022-12-18T04:24:17;17.02;;;8.63;;
26540;SDS011;14206;50.202;10.948;2022-12-18T04:26:53;15.15;;;7.38;;
26540;SDS011;14206;50.202;10.948;2022-12-18T04:29:23;16.05;;;8.38;;
26540;SDS011;14206;50.202;10.948;2022-12-18T04:31:50;17.60;;;8.57;;
26540;SDS011;14206;50.202;10.948;2022-12-18T04:34:18;16.42;;;7.80;;
26540;SDS011;14206;50.202;10.948;2022-12-18T04:36:51;14.13;;;7.07;;
26540;SDS011;14206;50.202;10.948;2022-12-18T04:39:24;12.40;;;6.47;;
26540;SDS011;14206;50.202;10.948;2022-12-18T04:41:59;14.90;;;6.40;;
26540;SDS011;14206;50.202;10.948;2022-12-18T04:44:26;13.02;;;7.32;;
26540;SDS011;14206;50.202;10.948;2022-12-18T04:46:53;13.05;;;6.60;;
26540;SDS011;14206;50.202;10.948;2022-12-18T04:49:22;11.63;;;6.05;;
26540;SDS011;14206;50.202;10.948;2022-12-18T04:51:49;13.30;;;6.93;;
26540;SDS011;14206;50.202;10.948;2022-12-18T04:54:16;11.77;;;5.55;;
26540;SDS011;14206;50.202;10.948;2022-12-18T04:56:45;11.68;;;4.97;;
26540;SDS011;14206;50.202;10.948;2022-12-18T04:59:12;8.38;;;4.50;;
26540;SDS011;14206;50.202;10.948;2022-12-18T05:01:39;7.65;;;4.38;;
26540;SDS011;14206;50.202;10.948;2022-12-18T05:04:06;8.25;;;4.60;;
26540;SDS011;14206;50.202;10.948;2022-12-18T05:06:33;6.75;;;3.90;;
26540;SDS011;14206;50.202;10.948;2022-12-18T05:09:00;7.28;;;3.78;;
26540;SDS011;14206;50.202;10.948;2022-12-18T05:11:27;5.32;;;3.42;;
26540;SDS011;14206;50.202;10.948;2022-12-18T05:13:53;5.97;;;3.47;;
26540;SDS011;14206;50.202;10.948;2022-12-18T05:16:23;6.45;;;3.72;;
26540;SDS011;14206;50.202;10.948;2022-12-18T05:18:53;7.25;;;3.58;;
26540;SDS011;14206;50.202;10.948;2022-12-18T05:21:19;7.65;;;3.70;;
26540;SDS011;14206;50.202;10.948;2022-12-18T05:23:46;7.57;;;3.88;;
26540;SDS011;14206;50.202;10.948;2022-12-18T05:26:14;10.68;;;5.03;;
26540;SDS011;14206;50.202;10.948;2022-12-18T05:28:43;9.73;;;5.22;;
26540;SDS011;14206;50.202;10.948;2022-12-18T05:31:13;8.10;;;4.35;;
26540;SDS011;14206;50.202;10.948;2022-12-18T05:33:40;8.52;;;4.07;;
26540;SDS011;14206;50.202;10.948;2022-12-18T05:36:08;7.32;;;4.45;;
26540;SDS011;14206;50.202;10.948;2022-12-18T05:38:36;10.45;;;5.45;;
26540;SDS011;14206;50.202;10.948;2022-12-18T05:41:05;9.55;;;5.22;;
26540;SDS011;14206;50.202;10.948;2022-12-18T05:43:37;17.55;;;7.53;;
26540;SDS011;14206;50.202;10.948;2022-12-18T05:46:06;18.10;;;8.10;;
26540;SDS011;14206;50.202;10.948;2022-12-18T05:48:37;13.35;;;6.57;;
26540;SDS011;14206;50.202;10.948;2022-12-18T05:51:08;10.75;;;5.65;;
26540;SDS011;14206;50.202;10.948;2022-12-18T05:53:36;13.38;;;6.10;;
26540;SDS011;14206;50.202;10.948;2022-12-18T05:56:06;11.18;;;5.30;;
26540;SDS011;14206;50.202;10.948;2022-12-18T05:58:35;15.05;;;7.72;;
26540;SDS011;14206;50.202;10.948;2022-12-18T06:01:06;13.60;;;6.97;;
26540;SDS011;14206;50.202;10.948;2022-12-18T06:03:34;11.02;;;6.20;;
26540;SDS011;14206;50.202;10.948;2022-12-18T06:06:01;14.43;;;6.93;;
26540;SDS011;14206;50.202;10.948;2022-12-18T06:08:28;14.48;;;7.22;;
26540;SDS011;14206;50.202;10.948;2022-12-18T06:11:09;20.30;;;10.05;;
26540;SDS011;14206;50.202;10.948;2022-12-18T06:13:37;20.85;;;9.32;;
26540;SDS011;14206;50.202;10.948;2022-12-18T06:16:05;19.23;;;9.82;;
26540;SDS011;14206;50.202;10.948;2022-12-18T06:18:32;25.52;;;11.20;;
26540;SDS011;14206;50.202;10.948;2022-12-18T06:21:03;23.15;;;10.52;;
26540;SDS011;14206;50.202;10.948;2022-12-18T06:23:31;21.15;;;10.23;;
26540;SDS011;14206;50.202;10.948;2022-12-18T06:25:58;23.92;;;11.00;;
26540;SDS011;14206;50.202;10.948;2022-12-18T06:28:29;20.45;;;10.88;;
26540;SDS011;14206;50.202;10.948;2022-12-18T06:30:57;21.85;;;9.68;;
26540;SDS011;14206;50.202;10.948;2022-12-18T06:33:26;17.63;;;8.80;;
26540;SDS011;14206;50.202;10.948;2022-12-18T06:36:06;19.42;;;9.00;;
26540;SDS011;14206;50.202;10.948;2022-12-18T06:38:39;26.88;;;11.27;;
26540;SDS011;14206;50.202;10.948;2022-12-18T06:41:08;25.67;;;11.85;;
26540;SDS011;14206;50.202;10.948;2022-12-18T06:43:45;25.88;;;11.98;;
26540;SDS011;14206;50.202;10.948;2022-12-18T06:46:12;29.00;;;13.55;;
26540;SDS011;14206;50.202;10.948;2022-12-18T06:48:39;24.30;;;12.90;;
26540;SDS011;14206;50.202;10.948;2022-12-18T06:51:06;26.38;;;12.32;;
26540;SDS011;14206;50.202;10.948;2022-12-18T06:53:33;22.70;;;10.25;;
26540;SDS011;14206;50.202;10.948;2022-12-18T06:56:04;21.33;;;9.25;;
26540;SDS011;14206;50.202;10.948;2022-12-18T06:58:36;16.42;;;8.60;;
26540;SDS011;14206;50.202;10.948;2022-12-18T07:01:24;16.45;;;7.80;;
26540;SDS011;14206;50.202;10.948;2022-12-18T07:03:51;14.68;;;7.60;;
26540;SDS011;14206;50.202;10.948;2022-12-18T07:06:23;17.67;;;7.88;;
26540;SDS011;14206;50.202;10.948;2022-12-18T07:08:53;13.02;;;6.72;;
26540;SDS011;14206;50.202;10.948;2022-12-18T07:11:20;13.80;;;6.85;;
26540;SDS011;14206;50.202;10.948;2022-12-18T07:13:47;16.00;;;7.57;;
26540;SDS011;14206;50.202;10.948;2022-12-18T07:16:16;13.73;;;7.20;;
26540;SDS011;14206;50.202;10.948;2022-12-18T07:18:50;15.93;;;7.78;;
26540;SDS011;14206;50.202;10.948;2022-12-18T07:21:18;17.60;;;8.20;;
26540;SDS011;14206;50.202;10.948;2022-12-18T07:23:46;17.38;;;8.35;;
26540;SDS011;14206;50.202;10.948;2022-12-18T07:26:14;18.77;;;8.65;;
26540;SDS011;14206;50.202;10.948;2022-12-18T07:28:43;17.52;;;8.80;;
26540;SDS011;14206;50.202;10.948;2022-12-18T07:31:11;16.55;;;8.27;;
26540;SDS011;14206;50.202;10.948;2022-12-18T07:33:40;15.27;;;7.72;;
26540;SDS011;14206;50.202;10.948;2022-12-18T07:36:08;16.85;;;7.35;;
26540;SDS011;14206;50.202;10.948;2022-12-18T07:38:36;16.13;;;7.38;;
26540;SDS011;14206;50.202;10.948;2022-12-18T07:41:08;21.63;;;10.75;;
26540;SDS011;14206;50.202;10.948;2022-12-18T07:43:37;25.58;;;12.10;;
26540;SDS011;14206;50.202;10.948;2022-12-18T07:46:05;26.40;;;10.98;;
26540;SDS011;14206;50.202;10.948;2022-12-18T07:48:33;29.58;;;13.45;;
26540;SDS011;14206;50.202;10.948;2022-12-18T07:51:03;28.33;;;13.63;;
26540;SDS011;14206;50.202;10.948;2022-12-18T07:53:32;26.15;;;12.57;;
26540;SDS011;14206;50.202;10.948;2022-12-18T07:56:01;22.23;;;11.20;;
26540;SDS011;14206;50.202;10.948;2022-12-18T07:58:49;18.25;;;9.18;;
26540;SDS011;14206;50.202;10.948;2022-12-18T08:01:23;15.95;;;8.68;;
26540;SDS011;14206;50.202;10.948;2022-12-18T08:03:50;16.73;;;8.95;;
26540;SDS011;14206;50.202;10.948;2022-12-18T08:06:17;13.90;;;7.40;;
26540;SDS011;14206;50.202;10.948;2022-12-18T08:08:47;13.55;;;7.63;;
26540;SDS011;14206;50.202;10.948;2022-12-18T08:11:15;13.30;;;6.68;;
26540;SDS011;14206;50.202;10.948;2022-12-18T08:13:42;15.75;;;7.45;;
26540;SDS011;14206;50.202;10.948;2022-12-18T08:16:09;12.60;;;7.15;;
26540;SDS011;14206;50.202;10.948;2022-12-18T08:18:36;13.90;;;7.07;;
26540;SDS011;14206;50.202;10.948;2022-12-18T08:21:46;14.10;;;7.25;;
26540;SDS011;14206;50.202;10.948;2022-12-18T08:23:56;17.08;;;7.47;;
26540;SDS011;14206;50.202;10.948;2022-12-18T08:26:28;13.23;;;6.90;;
26540;SDS011;14206;50.202;10.948;2022-12-18T08:28:56;12.05;;;6.93;;
26540;SDS011;14206;50.202;10.948;2022-12-18T08:31:25;17.45;;;8.98;;
26540;SDS011;14206;50.202;10.948;2022-12-18T08:33:53;15.98;;;8.23;;
26540;SDS011;14206;50.202;10.948;2022-12-18T08:36:23;13.93;;;7.65;;
26540;SDS011;14206;50.202;10.948;2022-12-18T08:38:51;12.98;;;7.13;;
26540;SDS011;14206;50.202;10.948;2022-12-18T08:41:18;13.82;;;7.07;;
26540;SDS011;14206;50.202;10.948;2022-12-18T08:43:46;12.30;;;7.00;;
26540;SDS011;14206;50.202;10.948;2022-12-18T08:46:32;13.65;;;7.47;;
26540;SDS011;14206;50.202;10.948;2022-12-18T08:49:02;13.70;;;7.75;;
26540;SDS011;14206;50.202;10.948;2022-12-18T08:51:36;14.63;;;8.00;;
26540;SDS011;14206;50.202;10.948;2022-12-18T08:54:04;15.73;;;8.93;;
26540;SDS011;14206;50.202;10.948;2022-12-18T08:56:31;17.95;;;9.63;;
26540;SDS011;14206;50.202;10.948;2022-12-18T08:58:59;17.17;;;9.63;;
26540;SDS011;14206;50.202;10.948;2022-12-18T09:01:26;18.85;;;10.65;;
26540;SDS011;14206;50.202;10.948;2022-12-18T09:03:58;20.40;;;12.30;;
26540;SDS011;14206;50.202;10.948;2022-12-18T09:06:25;20.70;;;11.07;;
26540;SDS011;14206;50.202;10.948;2022-12-18T09:08:52;21.88;;;11.80;;
26540;SDS011;14206;50.202;10.948;2022-12-18T09:11:21;22.27;;;11.70;;
26540;SDS011;14206;50.202;10.948;2022-12-18T09:17:29;18.83;;;10.50;;
26540;SDS011;14206;50.202;10.948;2022-12-18T09:19:56;20.25;;;10.07;;
26540;SDS011;14206;50.202;10.948;2022-12-18T09:22:23;26.48;;;13.05;;
26540;SDS011;14206;50.202;10.948;2022-12-18T09:24:57;22.35;;;12.05;;
26540;SDS011;14206;50.202;10.948;2022-12-18T09:27:24;20.38;;;12.02;;
26540;SDS011;14206;50.202;10.948;2022-12-18T09:29:51;24.15;;;13.40;;
26540;SDS011;14206;50.202;10.948;2022-12-18T09:32:18;21.42;;;10.88;;
26540;SDS011;14206;50.202;10.948;2022-12-18T09:34:47;19.02;;;11.10;;
26540;SDS011;14206;50.202;10.948;2022-12-18T09:37:15;18.27;;;10.07;;
26540;SDS011;14206;50.202;10.948;2022-12-18T09:39:44;25.10;;;13.63;;
26540;SDS011;14206;50.202;10.948;2022-12-18T09:42:17;23.75;;;12.23;;
26540;SDS011;14206;50.202;10.948;2022-12-18T09:44:52;21.35;;;11.43;;
26540;SDS011;14206;50.202;10.948;2022-12-18T09:50:00;17.40;;;9.20;;
26540;SDS011;14206;50.202;10.948;2022-12-18T09:52:32;18.00;;;9.77;;
26540;SDS011;14206;50.202;10.948;2022-12-18T09:55:06;19.02;;;9.73;;
26540;SDS011;14206;50.202;10.948;2022-12-18T09:57:42;20.13;;;11.27;;
26540;SDS011;14206;50.202;10.948;2022-12-18T10:00:22;18.60;;;9.88;;
26540;SDS011;14206;50.202;10.948;2022-12-18T10:02:55;19.38;;;10.43;;
26540;SDS011;14206;50.202;10.948;2022-12-18T10:08:08;13.30;;;7.50;;
26540;SDS011;14206;50.202;10.948;2022-12-18T10:10:50;15.80;;;8.52;;
26540;SDS011;14206;50.202;10.948;2022-12-18T10:16:14;17.65;;;9.52;;
26540;SDS011;14206;50.202;10.948;2022-12-18T10:21:34;17.58;;;9.60;;
26540;SDS011;14206;50.202;10.948;2022-12-18T10:29:42;17.45;;;11.05;;
26540;SDS011;14206;50.202;10.948;2022-12-18T10:32:15;15.60;;;10.00;;
26540;SDS011;14206;50.202;10.948;2022-12-18T10:34:44;13.60;;;9.07;;
26540;SDS011;14206;50.202;10.948;2022-12-18T10:37:31;15.10;;;9.27;;
26540;SDS011;14206;50.202;10.948;2022-12-18T10:42:32;17.33;;;9.82;;
26540;SDS011;14206;50.202;10.948;2022-12-18T10:45:33;16.38;;;10.00;;
26540;SDS011;14206;50.202;10.948;2022-12-18T10:47:52;15.40;;;9.68;;
26540;SDS011;14206;50.202;10.948;2022-12-18T10:50:30;16.92;;;9.30;;
26540;SDS011;14206;50.202;10.948;2022-12-18T10:53:19;17.20;;;9.55;;
26540;SDS011;14206;50.202;10.948;2022-12-18T10:55:55;16.65;;;9.70;;
26540;SDS011;14206;50.202;10.948;2022-12-18T11:04:40;15.35;;;8.60;;
26540;SDS011;14206;50.202;10.948;2022-12-18T11:06:51;18.58;;;10.90;;
26540;SDS011;14206;50.202;10.948;2022-12-18T11:09:22;15.05;;;8.77;;
26540;SDS011;14206;50.202;10.948;2022-12-18T11:11:54;17.08;;;9.15;;
26540;SDS011;14206;50.202;10.948;2022-12-18T11:16:52;14.95;;;9.10;;
26540;SDS011;14206;50.202;10.948;2022-12-18T11:19:41;16.58;;;8.82;;
26540;SDS011;14206;50.202;10.948;2022-12-18T11:22:18;13.70;;;8.05;;
26540;SDS011;14206;50.202;10.948;2022-12-18T11:25:02;16.37;;;8.43;;
26540;SDS011;14206;50.202;10.948;2022-12-18T11:27:59;13.50;;;7.90;;
26540;SDS011;14206;50.202;10.948;2022-12-18T11:30:32;12.77;;;7.38;;
26540;SDS011;14206;50.202;10.948;2022-12-18T11:33:11;12.95;;;7.47;;
26540;SDS011;14206;50.202;10.948;2022-12-18T11:35:52;14.10;;;7.60;;
26540;SDS011;14206;50.202;10.948;2022-12-18T11:38:23;14.13;;;8.32;;
26540;SDS011;14206;50.202;10.948;2022-12-18T11:40:56;12.63;;;7.70;;
26540;SDS011;14206;50.202;10.948;2022-12-18T11:43:50;12.10;;;7.50;;
26540;SDS011;14206;50.202;10.948;2022-12-18T11:46:32;14.43;;;7.20;;
26540;SDS011;14206;50.202;10.948;2022-12-18T11:49:17;12.15;;;7.60;;
26540;SDS011;14206;50.202;10.948;2022-12-18T11:51:50;13.20;;;7.20;;
26540;SDS011;14206;50.202;10.948;2022-12-18T11:54:36;12.93;;;7.75;;
26540;SDS011;14206;50.202;10.948;2022-12-18T12:06:05;10.95;;;6.32;;
26540;SDS011;14206;50.202;10.948;2022-12-18T12:14:46;16.67;;;9.20;;
26540;SDS011;14206;50.202;10.948;2022-12-18T12:20:18;12.80;;;8.00;;
26540;SDS011;14206;50.202;10.948;2022-12-18T12:23:40;14.32;;;8.02;;
26540;SDS011;14206;50.202;10.948;2022-12-18T12:26:11;11.98;;;6.68;;
26540;SDS011;14206;50.202;10.948;2022-12-18T12:40:45;11.10;;;6.35;;
26540;SDS011;14206;50.202;10.948;2022-12-18T12:43:32;9.77;;;5.65;;
26540;SDS011;14206;50.202;10.948;2022-12-18T12:46:16;10.80;;;6.25;;
26540;SDS011;14206;50.202;10.948;2022-12-18T12:48:56;11.38;;;6.50;;
26540;SDS011;14206;50.202;10.948;2022-12-18T12:51:35;9.25;;;5.15;;
26540;SDS011;14206;50.202;10.948;2022-12-18T12:54:05;10.68;;;5.82;;
26540;SDS011;14206;50.202;10.948;2022-12-18T12:56:54;9.32;;;5.68;;
26540;SDS011;14206;50.202;10.948;2022-12-18T12:59:29;9.82;;;5.68;;
26540;SDS011;14206;50.202;10.948;2022-12-18T13:07:56;10.52;;;6.28;;
26540;SDS011;14206;50.202;10.948;2022-12-18T13:10:41;10.25;;;6.15;;
26540;SDS011;14206;50.202;10.948;2022-12-18T13:15:49;12.48;;;7.80;;
26540;SDS011;14206;50.202;10.948;2022-12-18T13:18:32;13.90;;;8.57;;
26540;SDS011;14206;50.202;10.948;2022-12-18T13:34:16;9.25;;;5.70;;
26540;SDS011;14206;50.202;10.948;2022-12-18T13:37:39;11.23;;;6.30;;
26540;SDS011;14206;50.202;10.948;2022-12-18T13:45:58;12.27;;;7.35;;
26540;SDS011;14206;50.202;10.948;2022-12-18T13:48:26;14.45;;;8.27;;
26540;SDS011;14206;50.202;10.948;2022-12-18T13:53:59;16.88;;;9.48;;
26540;SDS011;14206;50.202;10.948;2022-12-18T13:56:30;13.45;;;7.43;;
26540;SDS011;14206;50.202;10.948;2022-12-18T13:59:19;14.60;;;8.43;;
26540;SDS011;14206;50.202;10.948;2022-12-18T14:01:51;15.40;;;8.95;;
26540;SDS011;14206;50.202;10.948;2022-12-18T14:04:28;17.48;;;9.45;;
26540;SDS011;14206;50.202;10.948;2022-12-18T14:07:05;14.45;;;8.95;;
26540;SDS011;14206;50.202;10.948;2022-12-18T14:09:42;12.95;;;8.15;;
26540;SDS011;14206;50.202;10.948;2022-12-18T14:12:37;13.43;;;7.43;;
26540;SDS011;14206;50.202;10.948;2022-12-18T14:17:55;11.95;;;6.90;;
26540;SDS011;14206;50.202;10.948;2022-12-18T14:20:45;14.50;;;8.23;;
26540;SDS011;14206;50.202;10.948;2022-12-18T14:23:32;12.73;;;7.63;;
26540;SDS011;14206;50.202;10.948;2022-12-18T14:28:57;13.80;;;8.65;;
26540;SDS011;14206;50.202;10.948;2022-12-18T14:31:28;12.38;;;8.00;;
26540;SDS011;14206;50.202;10.948;2022-12-18T14:33:57;13.75;;;7.18;;
26540;SDS011;14206;50.202;10.948;2022-12-18T14:36:25;13.88;;;8.25;;
26540;SDS011;14206;50.202;10.948;2022-12-18T14:38:54;11.15;;;6.95;;
26540;SDS011;14206;50.202;10.948;2022-12-18T14:41:31;9.65;;;5.78;;
26540;SDS011;14206;50.202;10.948;2022-12-18T14:44:05;10.57;;;6.82;;
26540;SDS011;14206;50.202;10.948;2022-12-18T14:46:37;11.65;;;6.88;;
26540;SDS011;14206;50.202;10.948;2022-12-18T14:52:18;10.57;;;6.55;;
26540;SDS011;14206;50.202;10.948;2022-12-18T14:54:49;9.75;;;6.05;;
26540;SDS011;14206;50.202;10.948;2022-12-18T14:57:20;8.43;;;5.28;;
26540;SDS011;14206;50.202;10.948;2022-12-18T15:00:06;8.70;;;5.10;;
26540;SDS011;14206;50.202;10.948;2022-12-18T15:02:42;7.20;;;4.53;;
26540;SDS011;14206;50.202;10.948;2022-12-18T15:07:44;7.68;;;4.85;;
26540;SDS011;14206;50.202;10.948;2022-12-18T15:10:17;9.20;;;4.63;;
26540;SDS011;14206;50.202;10.948;2022-12-18T15:12:45;10.23;;;6.28;;
26540;SDS011;14206;50.202;10.948;2022-12-18T15:18:04;10.88;;;6.45;;
26540;SDS011;14206;50.202;10.948;2022-12-18T15:20:42;11.40;;;6.30;;
26540;SDS011;14206;50.202;10.948;2022-12-18T15:23:45;8.40;;;5.05;;
26540;SDS011;14206;50.202;10.948;2022-12-18T15:26:15;7.82;;;4.57;;
26540;SDS011;14206;50.202;10.948;2022-12-18T15:28:44;7.32;;;4.47;;
26540;SDS011;14206;50.202;10.948;2022-12-18T15:33:45;7.05;;;4.22;;
26540;SDS011;14206;50.202;10.948;2022-12-18T15:36:19;7.78;;;4.60;;
26540;SDS011;14206;50.202;10.948;2022-12-18T15:38:55;9.23;;;5.13;;
26540;SDS011;14206;50.202;10.948;2022-12-18T15:41:38;9.65;;;5.13;;
26540;SDS011;14206;50.202;10.948;2022-12-18T15:44:20;9.77;;;5.10;;
26540;SDS011;14206;50.202;10.948;2022-12-18T15:46:49;8.73;;;4.82;;
26540;SDS011;14206;50.202;10.948;2022-12-18T15:49:16;7.68;;;4.78;;
26540;SDS011;14206;50.202;10.948;2022-12-18T15:51:43;8.05;;;4.82;;
26540;SDS011;14206;50.202;10.948;2022-12-18T15:54:18;8.48;;;4.90;;
26540;SDS011;14206;50.202;10.948;2022-12-18T15:57:08;9.23;;;4.80;;
26540;SDS011;14206;50.202;10.948;2022-12-18T15:59:51;11.98;;;6.70;;
26540;SDS011;14206;50.202;10.948;2022-12-18T16:02:20;8.80;;;5.07;;
26540;SDS011;14206;50.202;10.948;2022-12-18T16:04:51;8.50;;;5.25;;
26540;SDS011;14206;50.202;10.948;2022-12-18T16:07:20;9.63;;;5.45;;
26540;SDS011;14206;50.202;10.948;2022-12-18T16:09:51;6.63;;;4.47;;
26540;SDS011;14206;50.202;10.948;2022-12-18T16:12:21;7.25;;;4.60;;
26540;SDS011;14206;50.202;10.948;2022-12-18T16:14:49;8.95;;;4.85;;
26540;SDS011;14206;50.202;10.948;2022-12-18T16:17:16;6.65;;;4.13;;
26540;SDS011;14206;50.202;10.948;2022-12-18T16:19:43;8.02;;;4.47;;
26540;SDS011;14206;50.202;10.948;2022-12-18T16:22:15;8.95;;;4.80;;
26540;SDS011;14206;50.202;10.948;2022-12-18T16:24:51;7.68;;;4.40;;
26540;SDS011;14206;50.202;10.948;2022-12-18T16:27:19;8.02;;;4.30;;
26540;SDS011;14206;50.202;10.948;2022-12-18T16:29:51;7.85;;;4.55;;
26540;SDS011;14206;50.202;10.948;2022-12-18T16:32:18;6.57;;;3.47;;
26540;SDS011;14206;50.202;10.948;2022-12-18T16:34:46;9.40;;;4.95;;
26540;SDS011;14206;50.202;10.948;2022-12-18T16:37:14;9.40;;;5.15;;
26540;SDS011;14206;50.202;10.948;2022-12-18T16:39:41;9.32;;;5.13;;
26540;SDS011;14206;50.202;10.948;2022-12-18T16:42:13;12.80;;;6.82;;
26540;SDS011;14206;50.202;10.948;2022-12-18T16:44:43;12.77;;;7.35;;
26540;SDS011;14206;50.202;10.948;2022-12-18T16:47:10;12.00;;;6.53;;
26540;SDS011;14206;50.202;10.948;2022-12-18T16:49:40;11.50;;;6.55;;
26540;SDS011;14206;50.202;10.948;2022-12-18T16:52:07;9.85;;;5.82;;
26540;SDS011;14206;50.202;10.948;2022-12-18T16:54:37;10.10;;;5.63;;
26540;SDS011;14206;50.202;10.948;2022-12-18T16:57:04;11.23;;;6.05;;
26540;SDS011;14206;50.202;10.948;2022-12-18T16:59:31;9.77;;;5.55;;
26540;SDS011;14206;50.202;10.948;2022-12-18T17:02:01;8.27;;;4.63;;
26540;SDS011;14206;50.202;10.948;2022-12-18T17:04:33;7.78;;;4.53;;
26540;SDS011;14206;50.202;10.948;2022-12-18T17:07:00;7.07;;;4.53;;
26540;SDS011;14206;50.202;10.948;2022-12-18T17:09:27;6.45;;;4.28;;